Time;durP1;ratioP1;P1;durP2;ratioP2;P2;SDS_P1;SDS_P2;PMS_P1;PMS_P2;Temp;Humidity;BMP_temperature;BMP_pressure;BME280_temperature;BME280_humidity;BME280_pressure;Samples;Min_cycle;Max_cycle;Signal;HPM_P1;HPM_P2
2023/09/23 00:01:42;;;;;;;0.80;0.80;;;;;;;;;;5043130;28;20400;-76
2023/09/23 00:04:07;;;;;;;1.05;0.90;;;;;;;;;;5028254;28;20386;-76
2023/09/23 00:06:33;;;;;;;1.20;1.10;;;;;;;;;;5039137;28;20135;-76
2023/09/23 00:09:00;;;;;;;1.02;0.90;;;;;;;;;;5045951;28;20116;-76
2023/09/23 00:11:25;;;;;;;1.85;0.93;;;;;;;;;;5043216;28;20048;-75
2023/09/23 00:13:51;;;;;;;2.40;1.10;;;;;;;;;;5040528;28;20401;-75
2023/09/23 00:16:16;;;;;;;3.65;1.15;;;;;;;;;;5032761;28;20053;-77
2023/09/23 00:18:43;;;;;;;1.00;1.00;;;;;;;;;;5037783;28;20032;-75
2023/09/23 00:21:09;;;;;;;0.90;0.90;;;;;;;;;;5021723;28;20034;-77
2023/09/23 00:23:34;;;;;;;3.08;1.27;;;;;;;;;;5028624;28;20488;-74
2023/09/23 00:26:01;;;;;;;0.98;0.98;;;;;;;;;;5027309;28;20056;-75
2023/09/23 00:28:28;;;;;;;1.05;1.00;;;;;;;;;;5041894;28;20165;-75
2023/09/23 00:30:53;;;;;;;0.90;0.90;;;;;;;;;;5025621;28;20056;-76
2023/09/23 00:33:19;;;;;;;0.70;0.70;;;;;;;;;;5045248;28;20071;-75
2023/09/23 00:35:44;;;;;;;0.70;0.70;;;;;;;;;;5045762;28;20476;-75
2023/09/23 00:38:11;;;;;;;0.52;0.52;;;;;;;;;;5040806;28;20610;-75
2023/09/23 00:40:38;;;;;;;1.23;0.82;;;;;;;;;;5044341;28;20128;-77
2023/09/23 00:43:09;;;;;;;0.85;0.85;;;;;;;;;;5045855;28;20037;-77
2023/09/23 00:45:34;;;;;;;1.70;0.80;;;;;;;;;;5043452;28;20098;-77
2023/09/23 00:48:00;;;;;;;1.33;0.90;;;;;;;;;;5046162;28;20025;-74
2023/09/23 00:50:26;;;;;;;0.88;0.85;;;;;;;;;;5024780;28;20065;-75
2023/09/23 00:52:52;;;;;;;1.10;0.90;;;;;;;;;;5040374;28;20045;-74
2023/09/23 00:55:24;;;;;;;0.60;0.60;;;;;;;;;;5041829;28;20041;-74
2023/09/23 00:57:53;;;;;;;0.65;0.65;;;;;;;;;;5045283;28;20056;-75
2023/09/23 01:00:30;;;;;;;0.65;0.50;;;;;;;;;;5045428;28;20032;-77
2023/09/23 01:02:56;;;;;;;2.85;0.88;;;;;;;;;;5044688;28;20085;-75
2023/09/23 01:05:23;;;;;;;0.70;0.70;;;;;;;;;;5040451;28;20037;-77
2023/09/23 01:07:48;;;;;;;1.20;1.10;;;;;;;;;;5044612;28;20041;-77
2023/09/23 01:10:17;;;;;;;0.82;0.60;;;;;;;;;;5024405;28;20570;-77
2023/09/23 01:12:45;;;;;;;0.60;0.60;;;;;;;;;;5045177;28;20029;-75
2023/09/23 01:15:11;;;;;;;0.73;0.73;;;;;;;;;;5045335;28;20146;-75
2023/09/23 01:17:36;;;;;;;0.77;0.63;;;;;;;;;;5043831;28;20095;-75
2023/09/23 01:20:04;;;;;;;0.57;0.47;;;;;;;;;;5040559;28;20194;-75
2023/09/23 01:22:29;;;;;;;0.50;0.50;;;;;;;;;;5043158;28;20059;-75
2023/09/23 01:24:58;;;;;;;0.73;0.68;;;;;;;;;;5044958;28;20068;-75
2023/09/23 01:27:24;;;;;;;2.72;0.88;;;;;;;;;;5026694;28;20140;-75
2023/09/23 01:29:53;;;;;;;0.90;0.85;;;;;;;;;;5043717;28;20214;-75
2023/09/23 01:32:41;;;;;;;0.70;0.70;;;;;;;;;;5042579;28;20425;-74
2023/09/23 01:35:09;;;;;;;0.60;0.60;;;;;;;;;;5023467;28;20048;-74
2023/09/23 01:37:34;;;;;;;0.50;0.50;;;;;;;;;;5042688;28;20041;-77
2023/09/23 01:39:59;;;;;;;0.85;0.75;;;;;;;;;;5042535;28;20045;-77
2023/09/23 01:42:25;;;;;;;0.82;0.70;;;;;;;;;;5044952;28;20064;-74
2023/09/23 01:44:50;;;;;;;0.70;0.70;;;;;;;;;;5039176;28;20175;-77
2023/09/23 01:47:17;;;;;;;1.05;0.70;;;;;;;;;;5045525;28;20524;-75
2023/09/23 01:49:43;;;;;;;0.60;0.60;;;;;;;;;;5040026;28;20036;-75
2023/09/23 01:52:08;;;;;;;0.80;0.70;;;;;;;;;;5036697;28;20052;-75
2023/09/23 01:54:34;;;;;;;1.35;0.50;;;;;;;;;;5044355;28;20789;-75
2023/09/23 01:57:01;;;;;;;0.70;0.70;;;;;;;;;;5034928;28;20397;-74
2023/09/23 01:59:27;;;;;;;0.50;0.50;;;;;;;;;;5036301;28;20890;-75
2023/09/23 02:01:52;;;;;;;1.08;0.82;;;;;;;;;;5033509;28;20044;-74
2023/09/23 02:04:17;;;;;;;1.42;0.70;;;;;;;;;;5036590;28;20080;-74
2023/09/23 02:06:43;;;;;;;0.70;0.60;;;;;;;;;;5040189;28;20044;-74
2023/09/23 02:09:09;;;;;;;0.75;0.70;;;;;;;;;;5036416;28;20485;-75
2023/09/23 02:11:37;;;;;;;1.75;0.43;;;;;;;;;;5036785;28;20053;-75
2023/09/23 02:14:04;;;;;;;0.47;0.47;;;;;;;;;;5031729;28;20048;-75
2023/09/23 02:16:29;;;;;;;0.50;0.50;;;;;;;;;;5040764;28;20156;-75
2023/09/23 02:18:54;;;;;;;0.80;0.60;;;;;;;;;;5041770;28;20047;-75
2023/09/23 02:21:20;;;;;;;0.73;0.60;;;;;;;;;;5047940;28;20033;-75
2023/09/23 02:23:45;;;;;;;0.90;0.60;;;;;;;;;;5030671;28;20039;-75
2023/09/23 02:26:11;;;;;;;1.02;0.65;;;;;;;;;;5047945;28;20037;-76
2023/09/23 02:28:37;;;;;;;0.40;0.40;;;;;;;;;;5038995;28;20033;-76
2023/09/23 02:31:02;;;;;;;1.42;0.60;;;;;;;;;;5041712;28;20041;-76
2023/09/23 02:33:29;;;;;;;0.57;0.50;;;;;;;;;;5024125;28;20136;-76
2023/09/23 02:35:54;;;;;;;0.52;0.52;;;;;;;;;;5040144;28;20049;-76
2023/09/23 02:38:21;;;;;;;0.50;0.50;;;;;;;;;;5031525;28;20702;-77
2023/09/23 02:40:47;;;;;;;0.80;0.60;;;;;;;;;;5028543;28;20037;-77
2023/09/23 02:43:13;;;;;;;0.40;0.40;;;;;;;;;;5031905;28;20533;-74
2023/09/23 02:45:38;;;;;;;0.50;0.50;;;;;;;;;;5032650;28;20067;-77
2023/09/23 02:48:04;;;;;;;3.13;0.70;;;;;;;;;;5044900;28;20037;-77
2023/09/23 02:50:29;;;;;;;1.00;0.43;;;;;;;;;;5025715;28;20025;-74
2023/09/23 02:52:54;;;;;;;2.03;0.63;;;;;;;;;;5046180;28;20037;-74
2023/09/23 02:55:20;;;;;;;1.60;0.80;;;;;;;;;;5026835;28;20033;-76
2023/09/23 02:57:49;;;;;;;0.50;0.50;;;;;;;;;;5021803;28;20056;-77
2023/09/23 03:00:23;;;;;;;1.00;0.73;;;;;;;;;;5024611;28;20029;-77
2023/09/23 03:02:59;;;;;;;0.90;0.90;;;;;;;;;;5043982;28;20057;-74
2023/09/23 03:05:28;;;;;;;0.93;0.60;;;;;;;;;;5033185;28;20064;-77
2023/09/23 03:07:57;;;;;;;1.65;0.73;;;;;;;;;;5044175;28;20134;-74
2023/09/23 03:10:32;;;;;;;0.55;0.55;;;;;;;;;;5044264;28;20048;-74
2023/09/23 03:13:05;;;;;;;0.70;0.70;;;;;;;;;;5043748;28;20037;-77
2023/09/23 03:15:41;;;;;;;0.85;0.68;;;;;;;;;;5036578;28;20029;-74
2023/09/23 03:18:07;;;;;;;0.70;0.70;;;;;;;;;;5029473;28;20017;-75
2023/09/23 03:20:34;;;;;;;0.47;0.47;;;;;;;;;;5042629;28;20032;-75
2023/09/23 03:23:00;;;;;;;0.63;0.63;;;;;;;;;;5045889;28;20033;-75
2023/09/23 03:25:25;;;;;;;0.68;0.68;;;;;;;;;;5046902;28;20095;-75
2023/09/23 03:27:52;;;;;;;0.55;0.55;;;;;;;;;;5044208;28;20045;-75
2023/09/23 03:30:19;;;;;;;0.50;0.50;;;;;;;;;;5045560;28;20028;-75
2023/09/23 03:32:45;;;;;;;0.73;0.63;;;;;;;;;;5046309;28;20021;-75
2023/09/23 03:35:17;;;;;;;1.23;0.70;;;;;;;;;;5042662;28;20078;-75
2023/09/23 03:37:46;;;;;;;1.02;0.50;;;;;;;;;;5027779;28;20404;-75
2023/09/23 03:40:15;;;;;;;0.50;0.50;;;;;;;;;;5046884;28;20082;-76
2023/09/23 03:42:40;;;;;;;0.60;0.60;;;;;;;;;;5047774;28;20053;-77
2023/09/23 03:45:08;;;;;;;0.40;0.40;;;;;;;;;;5043199;28;20076;-77
2023/09/23 03:47:36;;;;;;;0.60;0.60;;;;;;;;;;5041245;28;20033;-74
2023/09/23 03:50:03;;;;;;;0.60;0.60;;;;;;;;;;5027429;28;20047;-74
2023/09/23 03:52:28;;;;;;;0.88;0.82;;;;;;;;;;5048248;28;20043;-74
2023/09/23 03:54:54;;;;;;;1.00;0.90;;;;;;;;;;5047579;28;20048;-74
2023/09/23 03:57:19;;;;;;;0.55;0.55;;;;;;;;;;5044916;28;20447;-74
2023/09/23 03:59:46;;;;;;;0.80;0.80;;;;;;;;;;5044734;28;20497;-74
2023/09/23 04:02:11;;;;;;;0.85;0.73;;;;;;;;;;5044600;28;20037;-74
2023/09/23 04:04:37;;;;;;;0.70;0.70;;;;;;;;;;5044111;28;20044;-74
2023/09/23 04:07:05;;;;;;;0.68;0.68;;;;;;;;;;5043149;28;20039;-74
2023/09/23 04:09:33;;;;;;;0.70;0.70;;;;;;;;;;5041072;28;20040;-75
2023/09/23 04:12:00;;;;;;;0.70;0.70;;;;;;;;;;5012950;28;20416;-75
2023/09/23 04:14:26;;;;;;;0.80;0.75;;;;;;;;;;5045370;28;20085;-75
2023/09/23 04:16:52;;;;;;;2.85;1.10;;;;;;;;;;5041319;28;20127;-75
2023/09/23 04:19:18;;;;;;;0.70;0.70;;;;;;;;;;5045879;28;20121;-75
2023/09/23 04:21:43;;;;;;;0.63;0.63;;;;;;;;;;5041926;28;20917;-75
2023/09/23 04:24:08;;;;;;;2.30;0.60;;;;;;;;;;5024953;28;20035;-75
2023/09/23 04:26:34;;;;;;;0.95;0.60;;;;;;;;;;5046685;28;20029;-75
2023/09/23 04:28:59;;;;;;;1.13;0.73;;;;;;;;;;5043957;28;20548;-75
2023/09/23 04:31:24;;;;;;;0.80;0.80;;;;;;;;;;5042384;28;20053;-75
2023/09/23 04:33:51;;;;;;;0.98;0.70;;;;;;;;;;5046551;28;20048;-75
2023/09/23 04:36:16;;;;;;;1.65;0.82;;;;;;;;;;5042726;28;20034;-75
2023/09/23 04:38:43;;;;;;;0.80;0.80;;;;;;;;;;5045602;28;20028;-75
2023/09/23 04:41:09;;;;;;;0.65;0.65;;;;;;;;;;5046498;28;20405;-75
2023/09/23 04:43:35;;;;;;;0.82;0.82;;;;;;;;;;5045938;28;20041;-75
2023/09/23 04:46:00;;;;;;;0.82;0.82;;;;;;;;;;5042382;28;20060;-75
2023/09/23 04:48:25;;;;;;;3.53;0.90;;;;;;;;;;5046542;28;20064;-75
2023/09/23 04:50:54;;;;;;;0.60;0.60;;;;;;;;;;5043422;28;21316;-75
2023/09/23 04:53:19;;;;;;;1.30;0.50;;;;;;;;;;5024641;28;20556;-75
2023/09/23 04:55:47;;;;;;;2.28;0.90;;;;;;;;;;5066497;22;20116;-78
2023/09/23 04:58:13;;;;;;;0.70;0.70;;;;;;;;;;5066711;28;20145;-77
2023/09/23 05:00:39;;;;;;;0.70;0.70;;;;;;;;;;5063100;28;20041;-78
2023/09/23 05:03:05;;;;;;;1.95;0.90;;;;;;;;;;5064643;28;20025;-78
2023/09/23 05:05:31;;;;;;;2.58;0.73;;;;;;;;;;5068616;28;20495;-77
2023/09/23 05:07:59;;;;;;;1.20;0.70;;;;;;;;;;5044515;28;20064;-78
2023/09/23 05:10:25;;;;;;;1.38;0.73;;;;;;;;;;5029026;28;20029;-77
2023/09/23 05:12:55;;;;;;;0.82;0.60;;;;;;;;;;5048755;28;20625;-78
2023/09/23 05:15:21;;;;;;;0.85;0.85;;;;;;;;;;5047491;28;20074;-78
2023/09/23 05:17:47;;;;;;;0.93;0.88;;;;;;;;;;5044242;28;20022;-79
2023/09/23 05:20:16;;;;;;;0.60;0.60;;;;;;;;;;5030505;28;20043;-79
2023/09/23 05:22:42;;;;;;;0.90;0.90;;;;;;;;;;5034346;28;20025;-78
2023/09/23 05:25:08;;;;;;;1.75;0.90;;;;;;;;;;5050489;28;20036;-79
2023/09/23 05:27:33;;;;;;;1.15;0.75;;;;;;;;;;5048909;28;20037;-79
2023/09/23 05:29:58;;;;;;;0.65;0.65;;;;;;;;;;5053897;28;20935;-79
2023/09/23 05:32:24;;;;;;;0.88;0.88;;;;;;;;;;5030966;28;20029;-79
2023/09/23 05:34:54;;;;;;;0.75;0.73;;;;;;;;;;5052190;28;20066;-79
2023/09/23 05:37:20;;;;;;;0.93;0.82;;;;;;;;;;5040856;28;20144;-78
2023/09/23 05:39:46;;;;;;;2.97;0.63;;;;;;;;;;5035223;28;20128;-79
2023/09/23 05:42:13;;;;;;;0.68;0.68;;;;;;;;;;5036474;28;20021;-79
2023/09/23 05:44:39;;;;;;;1.92;0.88;;;;;;;;;;5017318;28;20033;-79
2023/09/23 05:47:04;;;;;;;0.73;0.73;;;;;;;;;;5035172;28;20049;-79
2023/09/23 05:49:30;;;;;;;0.73;0.73;;;;;;;;;;5012201;28;20057;-79
2023/09/23 05:51:56;;;;;;;0.75;0.73;;;;;;;;;;5021889;28;20033;-79
2023/09/23 05:54:22;;;;;;;1.80;0.85;;;;;;;;;;5035371;28;20013;-78
2023/09/23 05:56:48;;;;;;;0.50;0.50;;;;;;;;;;5039464;28;20092;-77
2023/09/23 05:59:14;;;;;;;0.88;0.75;;;;;;;;;;5043715;28;20082;-78
2023/09/23 06:01:40;;;;;;;2.70;0.90;;;;;;;;;;5018836;28;20036;-77
2023/09/23 06:04:06;;;;;;;2.70;0.90;;;;;;;;;;5040793;28;20033;-78
2023/09/23 06:06:32;;;;;;;1.20;0.85;;;;;;;;;;5017507;28;20512;-80
2023/09/23 06:08:57;;;;;;;0.85;0.85;;;;;;;;;;5037104;28;20113;-78
2023/09/23 06:11:23;;;;;;;1.52;1.15;;;;;;;;;;5034837;28;20040;-78
2023/09/23 06:13:48;;;;;;;0.75;0.75;;;;;;;;;;5045406;28;20505;-78
2023/09/23 06:16:16;;;;;;;0.80;0.80;;;;;;;;;;5047356;28;20456;-78
2023/09/23 06:18:41;;;;;;;0.70;0.70;;;;;;;;;;5037812;28;20175;-77
2023/09/23 06:21:08;;;;;;;4.25;0.80;;;;;;;;;;5024847;28;20029;-78
2023/09/23 06:23:34;;;;;;;1.08;0.80;;;;;;;;;;5040542;28;20401;-78
2023/09/23 06:26:02;;;;;;;2.20;1.20;;;;;;;;;;5023400;28;20041;-78
2023/09/23 06:28:28;;;;;;;0.82;0.80;;;;;;;;;;5010694;28;20045;-78
2023/09/23 06:30:53;;;;;;;0.80;0.80;;;;;;;;;;5034565;28;20038;-78
2023/09/23 06:33:19;;;;;;;1.00;0.90;;;;;;;;;;5029883;28;20083;-78
2023/09/23 06:35:45;;;;;;;1.13;1.00;;;;;;;;;;5013088;28;20061;-78
2023/09/23 06:38:11;;;;;;;0.80;0.80;;;;;;;;;;5039921;28;20042;-78
2023/09/23 06:40:37;;;;;;;1.55;1.00;;;;;;;;;;5035042;28;20121;-78
2023/09/23 06:43:02;;;;;;;1.50;0.90;;;;;;;;;;5028250;28;20045;-78
2023/09/23 06:45:27;;;;;;;1.10;1.00;;;;;;;;;;5022424;28;20131;-78
2023/09/23 06:47:52;;;;;;;2.35;1.10;;;;;;;;;;5018148;28;20088;-78
2023/09/23 06:50:19;;;;;;;0.82;0.80;;;;;;;;;;5024327;28;20578;-78
2023/09/23 06:52:44;;;;;;;1.38;0.95;;;;;;;;;;5034993;28;20455;-77
2023/09/23 06:55:09;;;;;;;1.00;0.90;;;;;;;;;;5010219;28;20029;-78
2023/09/23 06:57:35;;;;;;;0.80;0.80;;;;;;;;;;5027304;28;20040;-78
2023/09/23 07:00:06;;;;;;;0.80;0.80;;;;;;;;;;5036232;28;20021;-78
2023/09/23 07:02:31;;;;;;;0.70;0.70;;;;;;;;;;5036312;28;20049;-79
2023/09/23 07:04:57;;;;;;;1.98;0.75;;;;;;;;;;5040744;28;20179;-80
2023/09/23 07:07:22;;;;;;;0.60;0.60;;;;;;;;;;5025144;28;20025;-78
2023/09/23 07:09:47;;;;;;;0.70;0.65;;;;;;;;;;5031352;28;20119;-77
2023/09/23 07:12:13;;;;;;;1.13;1.02;;;;;;;;;;5040429;28;20112;-78
2023/09/23 07:14:39;;;;;;;1.08;0.80;;;;;;;;;;5046691;28;20029;-78
2023/09/23 07:17:06;;;;;;;0.93;0.73;;;;;;;;;;5019019;28;20036;-78
2023/09/23 07:19:35;;;;;;;0.60;0.60;;;;;;;;;;5031017;28;20442;-77
2023/09/23 07:22:01;;;;;;;0.60;0.60;;;;;;;;;;5034079;28;20052;-78
2023/09/23 07:24:27;;;;;;;1.10;1.00;;;;;;;;;;5016363;28;20044;-78
2023/09/23 07:26:57;;;;;;;1.45;0.95;;;;;;;;;;5039871;28;20107;-78
2023/09/23 07:29:23;;;;;;;0.73;0.73;;;;;;;;;;5045634;28;20562;-78
2023/09/23 07:31:48;;;;;;;2.03;0.60;;;;;;;;;;5047114;28;20029;-78
2023/09/23 07:34:13;;;;;;;0.57;0.57;;;;;;;;;;5030376;28;20040;-77
2023/09/23 07:36:39;;;;;;;0.82;0.60;;;;;;;;;;5032343;28;20039;-78
2023/09/23 07:39:05;;;;;;;0.98;0.50;;;;;;;;;;5047968;28;20435;-78
2023/09/23 07:41:30;;;;;;;0.68;0.65;;;;;;;;;;5041349;28;20025;-78
2023/09/23 07:43:57;;;;;;;0.73;0.65;;;;;;;;;;5032084;28;20098;-78
2023/09/23 07:46:22;;;;;;;1.23;0.70;;;;;;;;;;5025227;28;20048;-78
2023/09/23 07:48:47;;;;;;;0.95;0.90;;;;;;;;;;5045000;28;20120;-79
2023/09/23 07:51:12;;;;;;;0.70;0.70;;;;;;;;;;5042947;28;20563;-79
2023/09/23 07:53:38;;;;;;;1.23;0.60;;;;;;;;;;5050466;28;20017;-78
2023/09/23 07:56:04;;;;;;;0.70;0.70;;;;;;;;;;5048091;28;20037;-78
2023/09/23 07:58:29;;;;;;;0.95;0.90;;;;;;;;;;5050966;28;20033;-78
2023/09/23 08:00:54;;;;;;;1.15;0.70;;;;;;;;;;5048479;28;20040;-78
2023/09/23 08:03:20;;;;;;;0.77;0.77;;;;;;;;;;5029726;28;20094;-78
2023/09/23 08:05:45;;;;;;;1.15;1.00;;;;;;;;;;5031875;28;20021;-78
2023/09/23 08:08:10;;;;;;;1.20;0.88;;;;;;;;;;5032543;28;20057;-78
2023/09/23 08:10:36;;;;;;;2.75;1.00;;;;;;;;;;5046536;28;20400;-78
2023/09/23 08:13:02;;;;;;;0.70;0.70;;;;;;;;;;5045371;28;20044;-78
2023/09/23 08:15:28;;;;;;;0.80;0.77;;;;;;;;;;5029412;28;20052;-78
2023/09/23 08:17:53;;;;;;;0.88;0.77;;;;;;;;;;5047037;28;20433;-78
2023/09/23 08:20:21;;;;;;;0.70;0.70;;;;;;;;;;5046906;28;20117;-78
2023/09/23 08:22:47;;;;;;;0.80;0.63;;;;;;;;;;5041166;28;20099;-78
2023/09/23 08:25:14;;;;;;;0.68;0.68;;;;;;;;;;5045311;28;20484;-79
2023/09/23 08:27:40;;;;;;;1.25;0.88;;;;;;;;;;5047488;28;20060;-78
2023/09/23 08:30:12;;;;;;;0.70;0.70;;;;;;;;;;5027858;28;20032;-78
2023/09/23 08:32:39;;;;;;;3.95;0.90;;;;;;;;;;5042634;28;20090;-78
2023/09/23 08:35:06;;;;;;;0.98;0.80;;;;;;;;;;5043875;28;20033;-78
2023/09/23 08:37:32;;;;;;;0.60;0.60;;;;;;;;;;5028169;28;20029;-78
2023/09/23 08:39:57;;;;;;;1.08;0.70;;;;;;;;;;5046858;28;20558;-78
2023/09/23 08:42:27;;;;;;;0.60;0.60;;;;;;;;;;5045227;28;20049;-78
2023/09/23 08:44:53;;;;;;;0.50;0.50;;;;;;;;;;5048400;28;20111;-78
2023/09/23 08:47:18;;;;;;;0.50;0.50;;;;;;;;;;5044272;28;20439;-78
2023/09/23 08:49:47;;;;;;;1.02;0.80;;;;;;;;;;5046845;28;20516;-78
2023/09/23 08:52:13;;;;;;;6.38;0.77;;;;;;;;;;5041517;28;20051;-77
2023/09/23 08:54:39;;;;;;;9.25;6.80;;;;;;;;;;5047441;28;20083;-78
2023/09/23 08:57:04;;;;;;;3.10;2.80;;;;;;;;;;5046691;28;20040;-78
2023/09/23 08:59:31;;;;;;;5.07;0.80;;;;;;;;;;5027038;28;20152;-78
2023/09/23 09:01:56;;;;;;;1.15;1.05;;;;;;;;;;5023592;28;20687;-79
2023/09/23 09:04:23;;;;;;;1.55;1.45;;;;;;;;;;5047379;28;20025;-78
2023/09/23 09:06:53;;;;;;;2.10;2.00;;;;;;;;;;5023754;28;20108;-78
2023/09/23 09:09:19;;;;;;;2.20;1.00;;;;;;;;;;5031395;28;20033;-78
2023/09/23 09:11:46;;;;;;;0.80;0.80;;;;;;;;;;5032377;28;20051;-78
2023/09/23 09:14:11;;;;;;;0.70;0.70;;;;;;;;;;5014795;28;20041;-78
2023/09/23 09:16:38;;;;;;;0.88;0.80;;;;;;;;;;5026122;28;20059;-78
2023/09/23 09:19:03;;;;;;;0.75;0.75;;;;;;;;;;5028360;28;20143;-78
2023/09/23 09:21:30;;;;;;;2.15;0.88;;;;;;;;;;5011109;28;20037;-78
2023/09/23 09:23:56;;;;;;;1.52;1.05;;;;;;;;;;5011459;28;20033;-78
2023/09/23 09:26:21;;;;;;;0.80;0.80;;;;;;;;;;5013919;28;20040;-78
2023/09/23 09:28:47;;;;;;;1.08;0.98;;;;;;;;;;5034859;28;20034;-78
2023/09/23 09:31:15;;;;;;;1.35;0.90;;;;;;;;;;5017524;28;20033;-78
2023/09/23 09:33:46;;;;;;;0.90;0.90;;;;;;;;;;5016664;28;20040;-79
2023/09/23 09:36:17;;;;;;;1.48;1.00;;;;;;;;;;5016598;28;20032;-78
2023/09/23 09:38:44;;;;;;;0.88;0.88;;;;;;;;;;5034928;28;20105;-78
2023/09/23 09:41:16;;;;;;;0.90;0.90;;;;;;;;;;5032160;28;20046;-78
2023/09/23 09:43:45;;;;;;;0.73;0.73;;;;;;;;;;5014514;28;20513;-79
2023/09/23 09:46:12;;;;;;;2.85;0.90;;;;;;;;;;5035931;28;20091;-79
2023/09/23 09:48:41;;;;;;;1.13;1.02;;;;;;;;;;5047386;28;20096;-79
2023/09/23 09:51:07;;;;;;;0.80;0.80;;;;;;;;;;5033596;28;20491;-78
2023/09/23 09:53:36;;;;;;;1.10;0.80;;;;;;;;;;5033049;28;20103;-79
2023/09/23 09:56:04;;;;;;;0.82;0.80;;;;;;;;;;5027783;28;20052;-78
2023/09/23 09:58:41;;;;;;;1.50;0.90;;;;;;;;;;5036893;28;20120;-78
2023/09/23 10:01:12;;;;;;;0.63;0.63;;;;;;;;;;5054274;28;20053;-79
2023/09/23 10:03:38;;;;;;;0.60;0.60;;;;;;;;;;5036141;28;20556;-79
2023/09/23 10:06:07;;;;;;;0.77;0.77;;;;;;;;;;5036937;28;20029;-81
2023/09/23 10:08:38;;;;;;;1.98;0.70;;;;;;;;;;5040025;28;20025;-79
2023/09/23 10:11:09;;;;;;;1.92;0.98;;;;;;;;;;5057715;28;20041;-80
2023/09/23 10:13:35;;;;;;;0.85;0.85;;;;;;;;;;5058683;28;20036;-80
2023/09/23 10:16:12;;;;;;;2.90;0.68;;;;;;;;;;5039951;28;20045;-80
2023/09/23 10:18:39;;;;;;;0.68;0.68;;;;;;;;;;5040522;28;20040;-80
2023/09/23 10:21:05;;;;;;;1.27;0.98;;;;;;;;;;5058037;28;20021;-78
2023/09/23 10:23:35;;;;;;;1.00;0.90;;;;;;;;;;5058225;28;20158;-79
2023/09/23 10:26:16;;;;;;;0.93;0.93;;;;;;;;;;5039951;28;20033;-79
2023/09/23 10:28:42;;;;;;;1.17;0.90;;;;;;;;;;5057554;28;20060;-78
2023/09/23 10:31:07;;;;;;;0.88;0.88;;;;;;;;;;5039641;28;20489;-79
2023/09/23 10:33:35;;;;;;;0.80;0.80;;;;;;;;;;5057697;28;20103;-79
2023/09/23 10:36:01;;;;;;;1.08;0.80;;;;;;;;;;5058016;28;20028;-80
2023/09/23 10:38:30;;;;;;;1.85;0.93;;;;;;;;;;5057208;28;20025;-79
2023/09/23 10:40:56;;;;;;;0.70;0.70;;;;;;;;;;5056859;28;20059;-79
2023/09/23 10:43:22;;;;;;;0.82;0.82;;;;;;;;;;5039379;28;20029;-78
2023/09/23 10:45:54;;;;;;;3.22;1.00;;;;;;;;;;5039223;28;20067;-78
2023/09/23 10:48:20;;;;;;;1.17;0.90;;;;;;;;;;5057022;28;20024;-80
2023/09/23 10:50:46;;;;;;;2.45;0.90;;;;;;;;;;5058577;28;20041;-80
2023/09/23 10:53:12;;;;;;;1.80;0.90;;;;;;;;;;5057302;28;20033;-80
2023/09/23 10:55:39;;;;;;;0.98;0.63;;;;;;;;;;5039176;28;20456;-79
2023/09/23 10:58:08;;;;;;;1.13;1.00;;;;;;;;;;5057125;22;20041;-74
2023/09/23 11:00:36;;;;;;;0.80;0.80;;;;;;;;;;5063085;28;20033;-73
2023/09/23 11:03:10;;;;;;;2.38;0.90;;;;;;;;;;5056718;28;20487;-74
2023/09/23 11:05:37;;;;;;;1.17;0.80;;;;;;;;;;5063418;28;20752;-74
2023/09/23 11:08:10;;;;;;;0.70;0.70;;;;;;;;;;5047517;28;20138;-74
2023/09/23 11:10:38;;;;;;;1.30;0.82;;;;;;;;;;5032090;28;20041;-74
2023/09/23 11:13:10;;;;;;;0.70;0.70;;;;;;;;;;5021033;28;20052;-73
2023/09/23 11:15:38;;;;;;;0.85;0.82;;;;;;;;;;5029691;28;20064;-76
2023/09/23 11:18:06;;;;;;;1.00;0.82;;;;;;;;;;5033996;28;20021;-76
2023/09/23 11:20:33;;;;;;;1.25;0.93;;;;;;;;;;5044117;28;20500;-73
2023/09/23 11:23:02;;;;;;;0.73;0.73;;;;;;;;;;5041093;28;20033;-76
2023/09/23 11:25:27;;;;;;;0.98;0.93;;;;;;;;;;5043240;28;20052;-76
2023/09/23 11:27:57;;;;;;;1.02;0.90;;;;;;;;;;5041178;28;20050;-74
2023/09/23 11:30:22;;;;;;;1.42;0.90;;;;;;;;;;5042931;28;20025;-74
2023/09/23 11:32:51;;;;;;;1.48;0.90;;;;;;;;;;5041405;28;20052;-74
2023/09/23 11:35:17;;;;;;;3.90;1.00;;;;;;;;;;5035637;28;20726;-74
2023/09/23 11:37:44;;;;;;;1.63;0.88;;;;;;;;;;5011189;28;20033;-74
2023/09/23 11:40:12;;;;;;;0.95;0.70;;;;;;;;;;5029392;28;20060;-74
2023/09/23 11:42:37;;;;;;;0.73;0.73;;;;;;;;;;5028594;28;20120;-74
2023/09/23 11:45:02;;;;;;;2.88;1.45;;;;;;;;;;5030249;28;20123;-74
2023/09/23 11:47:28;;;;;;;0.80;0.80;;;;;;;;;;5009982;28;20029;-74
2023/09/23 11:49:53;;;;;;;1.00;1.00;;;;;;;;;;5012550;28;20041;-74
2023/09/23 11:52:18;;;;;;;1.83;1.02;;;;;;;;;;5021853;28;21008;-74
2023/09/23 11:54:44;;;;;;;1.45;0.85;;;;;;;;;;5018490;28;20038;-73
2023/09/23 11:57:10;;;;;;;1.83;0.95;;;;;;;;;;5017440;28;20037;-73
2023/09/23 11:59:36;;;;;;;4.07;0.88;;;;;;;;;;5019125;28;20029;-73
2023/09/23 12:02:02;;;;;;;2.20;0.90;;;;;;;;;;5009050;28;20042;-74
2023/09/23 12:04:27;;;;;;;2.28;0.88;;;;;;;;;;5012437;28;20040;-75
2023/09/23 12:06:52;;;;;;;1.33;1.10;;;;;;;;;;5009502;28;20128;-73
2023/09/23 12:09:17;;;;;;;1.45;0.85;;;;;;;;;;5015912;28;20389;-73
2023/09/23 12:11:43;;;;;;;1.85;0.90;;;;;;;;;;5020063;28;20038;-75
2023/09/23 12:14:12;;;;;;;0.88;0.88;;;;;;;;;;5008733;28;20132;-76
2023/09/23 12:16:37;;;;;;;0.70;0.70;;;;;;;;;;5012487;28;20099;-74
2023/09/23 12:19:02;;;;;;;0.70;0.70;;;;;;;;;;5019593;28;20049;-74
2023/09/23 12:21:28;;;;;;;5.22;0.90;;;;;;;;;;5019919;28;20183;-74
2023/09/23 12:23:59;;;;;;;0.98;0.98;;;;;;;;;;5018890;28;20757;-74
2023/09/23 12:26:24;;;;;;;3.28;0.95;;;;;;;;;;5010879;28;20037;-75
2023/09/23 12:28:50;;;;;;;0.95;0.77;;;;;;;;;;5009243;28;20042;-74
2023/09/23 12:31:15;;;;;;;1.15;1.05;;;;;;;;;;5013040;28;20577;-74
2023/09/23 12:33:40;;;;;;;0.95;0.80;;;;;;;;;;5014592;28;20045;-74
2023/09/23 12:36:06;;;;;;;1.33;0.90;;;;;;;;;;5013521;28;20021;-74
2023/09/23 12:38:31;;;;;;;0.98;0.98;;;;;;;;;;5007290;28;21752;-74
2023/09/23 12:40:57;;;;;;;6.90;1.35;;;;;;;;;;5006789;28;20053;-74
2023/09/23 12:43:22;;;;;;;1.20;1.10;;;;;;;;;;5003225;28;20041;-74
2023/09/23 12:45:48;;;;;;;2.42;0.90;;;;;;;;;;5008284;28;20048;-75
2023/09/23 12:48:15;;;;;;;0.95;0.85;;;;;;;;;;5006891;28;20058;-74
2023/09/23 12:50:40;;;;;;;1.60;1.08;;;;;;;;;;5020611;28;21421;-74
2023/09/23 12:53:05;;;;;;;0.80;0.80;;;;;;;;;;5017710;28;20041;-76
2023/09/23 12:55:31;;;;;;;1.55;1.00;;;;;;;;;;5014563;28;20084;-76
2023/09/23 12:57:56;;;;;;;0.90;0.90;;;;;;;;;;5011279;28;20064;-76
2023/09/23 13:00:22;;;;;;;1.85;1.08;;;;;;;;;;5004264;28;20536;-75
2023/09/23 13:02:49;;;;;;;1.92;0.95;;;;;;;;;;5005392;28;20490;-75
2023/09/23 13:05:15;;;;;;;1.00;0.90;;;;;;;;;;5004639;28;20030;-75
2023/09/23 13:07:40;;;;;;;0.70;0.70;;;;;;;;;;5008413;28;20037;-76
2023/09/23 13:10:06;;;;;;;1.10;1.00;;;;;;;;;;5010191;28;20124;-75
2023/09/23 13:12:32;;;;;;;2.70;1.00;;;;;;;;;;5011569;28;20038;-75
2023/09/23 13:14:57;;;;;;;0.90;0.80;;;;;;;;;;5010982;28;20025;-75
2023/09/23 13:17:22;;;;;;;0.77;0.77;;;;;;;;;;5008646;28;20064;-76
2023/09/23 13:19:47;;;;;;;3.15;1.00;;;;;;;;;;5012292;28;20040;-75
2023/09/23 13:22:13;;;;;;;1.40;0.82;;;;;;;;;;5011591;28;20569;-75
2023/09/23 13:24:38;;;;;;;1.55;0.90;;;;;;;;;;5006693;28;20513;-75
2023/09/23 13:27:04;;;;;;;0.80;0.80;;;;;;;;;;5012390;28;20089;-75
2023/09/23 13:29:29;;;;;;;1.35;0.98;;;;;;;;;;5011464;28;20017;-76
2023/09/23 13:31:56;;;;;;;1.75;1.00;;;;;;;;;;5004986;28;20041;-74
2023/09/23 13:34:21;;;;;;;2.15;1.00;;;;;;;;;;5012461;28;20624;-74
2023/09/23 13:36:47;;;;;;;2.55;1.00;;;;;;;;;;5011580;28;20045;-74
2023/09/23 13:39:12;;;;;;;1.27;0.95;;;;;;;;;;5007816;28;20494;-75
2023/09/23 13:41:37;;;;;;;0.98;0.80;;;;;;;;;;5016347;28;20053;-74
2023/09/23 13:44:03;;;;;;;1.85;0.90;;;;;;;;;;5011836;28;20048;-75
2023/09/23 13:46:28;;;;;;;3.08;0.90;;;;;;;;;;5014960;28;20038;-74
2023/09/23 13:48:54;;;;;;;1.88;0.90;;;;;;;;;;5012015;28;20042;-74
2023/09/23 13:51:21;;;;;;;0.80;0.80;;;;;;;;;;5016437;28;20481;-75
2023/09/23 13:53:46;;;;;;;0.65;0.65;;;;;;;;;;5016444;28;20048;-74
2023/09/23 13:56:11;;;;;;;1.65;0.90;;;;;;;;;;5009630;28;20536;-74
2023/09/23 13:58:37;;;;;;;1.92;1.15;;;;;;;;;;5009424;28;20517;-74
2023/09/23 14:01:02;;;;;;;1.95;1.40;;;;;;;;;;5014777;28;20062;-75
2023/09/23 14:03:28;;;;;;;0.80;0.80;;;;;;;;;;5009472;28;20029;-75
2023/09/23 14:05:53;;;;;;;1.13;1.00;;;;;;;;;;5008202;28;20510;-75
2023/09/23 14:08:19;;;;;;;1.38;1.05;;;;;;;;;;5014772;28;20033;-74
2023/09/23 14:10:44;;;;;;;3.10;1.00;;;;;;;;;;5021104;28;20033;-74
2023/09/23 14:13:09;;;;;;;0.98;0.95;;;;;;;;;;5013884;28;20628;-74
2023/09/23 14:15:35;;;;;;;1.42;0.90;;;;;;;;;;5018428;28;20342;-74
2023/09/23 14:18:00;;;;;;;1.45;1.00;;;;;;;;;;5012568;28;20030;-74
2023/09/23 14:20:25;;;;;;;0.93;0.90;;;;;;;;;;5010307;28;20365;-75
2023/09/23 14:22:51;;;;;;;1.10;1.05;;;;;;;;;;5014629;28;20049;-74
2023/09/23 14:25:17;;;;;;;0.90;0.90;;;;;;;;;;5009801;28;20034;-74
2023/09/23 14:27:43;;;;;;;0.98;0.98;;;;;;;;;;5012330;28;20098;-74
2023/09/23 14:30:10;;;;;;;1.75;1.13;;;;;;;;;;5013061;28;20033;-74
2023/09/23 14:32:36;;;;;;;1.73;1.10;;;;;;;;;;4995943;28;20033;-75
2023/09/23 14:35:02;;;;;;;1.05;1.00;;;;;;;;;;5012557;28;20044;-74
2023/09/23 14:37:29;;;;;;;1.08;1.08;;;;;;;;;;5019320;28;20524;-74
2023/09/23 14:39:55;;;;;;;1.30;0.90;;;;;;;;;;5017742;28;20500;-74